Time;durP1;ratioP1;P1;durP2;ratioP2;P2;SDS_P1;SDS_P2;PMS_P1;PMS_P2;Temp;Humidity;BMP_temperature;BMP_pressure;BME280_temperature;BME280_humidity;BME280_pressure;Samples;Min_cycle;Max_cycle;Signal;HPM_P1;HPM_P2
2023/09/23 00:00:46;;;;;;;5.50;4.95;;;15.20;99.90;;;;;;2068275;28;20105;-74
2023/09/23 00:01:47;;;;;;;4.35;4.03;;;15.20;99.90;;;;;;2066942;28;20030;-74
2023/09/23 00:02:49;;;;;;;4.97;4.57;;;15.20;99.90;;;;;;2067801;28;20029;-75
2023/09/23 00:03:52;;;;;;;6.32;4.72;;;15.20;99.90;;;;;;2076469;28;20014;-74
2023/09/23 00:04:53;;;;;;;5.03;4.63;;;15.20;99.90;;;;;;2077537;28;20022;-74
2023/09/23 00:05:54;;;;;;;5.75;5.25;;;15.20;99.90;;;;;;2076756;28;20971;-74
2023/09/23 00:06:54;;;;;;;5.93;5.43;;;15.20;99.90;;;;;;2077428;28;20408;-73
2023/09/23 00:07:56;;;;;;;6.75;4.50;;;15.20;99.90;;;;;;2076923;28;20017;-74
2023/09/23 00:08:57;;;;;;;7.28;4.80;;;15.20;99.90;;;;;;2076160;28;20096;-74
2023/09/23 00:09:58;;;;;;;7.00;6.30;;;15.20;99.90;;;;;;2076264;28;20022;-74
2023/09/23 00:10:58;;;;;;;5.05;4.65;;;15.20;99.90;;;;;;2075111;28;20030;-74
2023/09/23 00:11:59;;;;;;;5.43;4.93;;;15.20;99.90;;;;;;2076392;28;20025;-75
2023/09/23 00:13:00;;;;;;;6.78;6.13;;;15.20;99.90;;;;;;2077106;28;20416;-75
2023/09/23 00:14:01;;;;;;;6.85;6.22;;;15.20;99.90;;;;;;2075744;28;20068;-75
2023/09/23 00:15:03;;;;;;;7.00;6.30;;;15.20;99.90;;;;;;2077261;28;20088;-75
2023/09/23 00:16:16;;;;;;;6.70;6.00;;;15.20;99.90;;;;;;2076903;28;20021;-74
2023/09/23 00:17:17;;;;;;;7.03;6.32;;;15.20;99.90;;;;;;2067641;28;20109;-74
2023/09/23 00:18:17;;;;;;;7.30;6.70;;;15.20;99.90;;;;;;2070660;28;20489;-74
2023/09/23 00:19:18;;;;;;;6.85;6.25;;;15.20;99.90;;;;;;2071639;28;20097;-75
2023/09/23 00:20:19;;;;;;;7.25;6.53;;;15.20;99.90;;;;;;2070342;28;20014;-74
2023/09/23 00:21:19;;;;;;;6.35;5.75;;;15.20;99.90;;;;;;2069269;28;20038;-74
2023/09/23 00:22:21;;;;;;;6.47;5.93;;;15.20;99.90;;;;;;2077011;28;20026;-74
2023/09/23 00:23:21;;;;;;;5.93;5.43;;;15.20;99.90;;;;;;2076141;28;20022;-75
2023/09/23 00:24:23;;;;;;;6.22;5.68;;;15.20;99.90;;;;;;2078310;28;20030;-75
2023/09/23 00:25:25;;;;;;;6.18;5.57;;;15.20;99.90;;;;;;2065943;28;20632;-75
2023/09/23 00:26:26;;;;;;;5.07;4.68;;;15.20;99.90;;;;;;2065043;28;20478;-74
2023/09/23 00:27:27;;;;;;;5.95;5.35;;;15.20;99.90;;;;;;2077022;28;20068;-74
2023/09/23 00:28:28;;;;;;;6.20;5.50;;;15.20;99.90;;;;;;2077184;28;20022;-74
2023/09/23 00:29:30;;;;;;;5.68;5.18;;;15.20;99.90;;;;;;2076073;28;20460;-74
2023/09/23 00:30:33;;;;;;;5.95;5.45;;;15.20;99.90;;;;;;2075842;28;20018;-75
2023/09/23 00:31:33;;;;;;;6.35;5.82;;;15.20;99.90;;;;;;2076578;28;20060;-74
2023/09/23 00:32:34;;;;;;;6.88;6.18;;;15.20;99.90;;;;;;2076686;28;20457;-75
2023/09/23 00:33:37;;;;;;;6.25;5.65;;;15.20;99.90;;;;;;2068035;28;20061;-74
2023/09/23 00:34:39;;;;;;;6.65;6.05;;;15.20;99.90;;;;;;2069110;28;20022;-74
2023/09/23 00:35:41;;;;;;;6.40;5.80;;;15.20;99.90;;;;;;2076255;28;20380;-74
2023/09/23 00:36:41;;;;;;;5.75;5.15;;;15.20;99.90;;;;;;2067996;28;20065;-74
2023/09/23 00:37:42;;;;;;;6.22;5.60;;;15.20;99.90;;;;;;2068039;28;20062;-74
2023/09/23 00:38:42;;;;;;;6.75;6.18;;;15.20;99.90;;;;;;2076728;28;20112;-74
2023/09/23 00:39:43;;;;;;;5.30;4.90;;;15.20;99.90;;;;;;2076205;28;20045;-74
2023/09/23 00:40:44;;;;;;;6.47;5.97;;;15.20;99.90;;;;;;2072800;28;20030;-74
2023/09/23 00:41:45;;;;;;;6.32;5.75;;;15.20;99.90;;;;;;2072090;28;20121;-74
2023/09/23 00:42:49;;;;;;;5.93;5.43;;;15.10;99.90;;;;;;2075484;28;20121;-74
2023/09/23 00:43:50;;;;;;;5.93;5.20;;;15.10;99.90;;;;;;2068797;28;20033;-74
2023/09/23 00:44:51;;;;;;;5.75;5.30;;;15.10;99.90;;;;;;2069125;28;20022;-74
2023/09/23 00:45:54;;;;;;;6.28;5.40;;;15.10;99.90;;;;;;2078102;28;20014;-74
2023/09/23 00:46:55;;;;;;;6.80;6.10;;;15.10;99.90;;;;;;2064530;28;20027;-74
2023/09/23 00:47:56;;;;;;;6.82;6.03;;;15.10;99.90;;;;;;2065639;28;20025;-74
2023/09/23 00:48:59;;;;;;;7.03;6.35;;;15.10;99.90;;;;;;2077430;28;20502;-74
2023/09/23 00:50:22;;;;;;;6.72;6.13;;;15.10;99.90;;;;;;2076585;28;20121;-72
2023/09/23 00:51:21;;;;;;;7.10;6.20;;;15.10;99.90;;;;;;2077072;28;20387;-74
2023/09/23 00:52:22;;;;;;;7.40;6.60;;;15.10;99.90;;;;;;2077595;28;20013;-74
2023/09/23 00:53:25;;;;;;;6.70;6.00;;;15.10;99.90;;;;;;2076906;28;20105;-75
2023/09/23 00:54:25;;;;;;;7.25;6.15;;;15.10;99.90;;;;;;2076197;28;20025;-74
2023/09/23 00:55:30;;;;;;;7.38;6.68;;;15.10;99.90;;;;;;2077145;28;20084;-74
2023/09/23 00:56:36;;;;;;;6.82;6.20;;;15.10;99.90;;;;;;2078214;28;20120;-74
2023/09/23 00:57:37;;;;;;;6.72;6.13;;;15.10;99.90;;;;;;2076562;28;20026;-75
2023/09/23 00:58:40;;;;;;;5.35;4.95;;;15.10;99.90;;;;;;2076468;28;20033;-74
2023/09/23 00:59:43;;;;;;;6.15;5.30;;;15.10;99.90;;;;;;2077521;28;20025;-74
2023/09/23 01:00:43;;;;;;;5.85;5.35;;;15.10;99.90;;;;;;2077133;28;20155;-74
2023/09/23 01:01:48;;;;;;;5.45;4.95;;;15.10;99.90;;;;;;2075321;28;20595;-74
2023/09/23 01:02:49;;;;;;;5.88;5.30;;;15.10;99.90;;;;;;2075410;28;20108;-74
2023/09/23 01:03:49;;;;;;;5.50;4.95;;;15.10;99.90;;;;;;2077977;28;20025;-75
2023/09/23 01:04:50;;;;;;;5.85;5.13;;;15.10;99.90;;;;;;2077709;28;20040;-75
2023/09/23 01:06:05;;;;;;;5.05;4.65;;;15.10;99.90;;;;;;2074931;28;20057;-75
2023/09/23 01:07:05;;;;;;;5.63;4.97;;;15.10;99.90;;;;;;2075600;28;20053;-75
2023/09/23 01:08:20;;;;;;;6.47;5.07;;;15.10;99.90;;;;;;2077798;28;20488;-75
2023/09/23 01:09:21;;;;;;;5.43;4.93;;;15.10;99.90;;;;;;2078528;28;20614;-72
2023/09/23 01:10:23;;;;;;;4.38;4.07;;;15.10;99.90;;;;;;2078735;28;20659;-74
2023/09/23 01:11:26;;;;;;;4.75;4.25;;;15.10;99.90;;;;;;2078681;28;20025;-75
2023/09/23 01:12:27;;;;;;;4.72;4.30;;;15.10;99.90;;;;;;2077709;28;20021;-74
2023/09/23 01:13:30;;;;;;;4.85;4.32;;;15.10;99.90;;;;;;2078828;28;20034;-74
2023/09/23 01:14:31;;;;;;;4.28;3.88;;;15.10;99.90;;;;;;2077571;28;20072;-74
2023/09/23 01:15:32;;;;;;;4.90;4.40;;;15.10;99.90;;;;;;2077455;28;20026;-74
2023/09/23 01:16:34;;;;;;;5.03;4.32;;;15.10;99.90;;;;;;2077630;28;20034;-75
2023/09/23 01:17:35;;;;;;;5.43;4.57;;;15.10;99.90;;;;;;2077558;28;20025;-75
2023/09/23 01:18:36;;;;;;;4.57;4.18;;;15.10;99.90;;;;;;2077137;28;20537;-74
2023/09/23 01:19:37;;;;;;;4.40;4.00;;;15.10;99.90;;;;;;2077647;28;20450;-75
2023/09/23 01:20:37;;;;;;;4.53;4.13;;;15.10;99.90;;;;;;2072741;28;20402;-74
2023/09/23 01:21:38;;;;;;;4.25;3.95;;;15.00;99.90;;;;;;2072658;28;20041;-74
2023/09/23 01:22:39;;;;;;;4.45;4.05;;;15.00;99.90;;;;;;2076466;28;20107;-72
2023/09/23 01:23:43;;;;;;;4.93;4.30;;;15.00;99.90;;;;;;2067528;28;20453;-74
2023/09/23 01:24:45;;;;;;;4.25;3.88;;;15.10;99.90;;;;;;2070492;28;20026;-74
2023/09/23 01:25:48;;;;;;;4.38;3.97;;;15.00;99.90;;;;;;2079108;28;20017;-74
2023/09/23 01:26:52;;;;;;;4.47;4.10;;;15.00;99.90;;;;;;2076706;28;20028;-74
2023/09/23 01:27:53;;;;;;;4.18;3.88;;;15.00;99.90;;;;;;2078041;28;20114;-74
2023/09/23 01:28:54;;;;;;;4.28;3.95;;;15.00;99.90;;;;;;2077803;28;20040;-74
2023/09/23 01:29:56;;;;;;;15.75;4.03;;;15.00;99.90;;;;;;2078238;28;20404;-74
2023/09/23 01:30:57;;;;;;;4.88;4.43;;;15.00;99.90;;;;;;2078995;28;20023;-74
2023/09/23 01:32:31;;;;;;;4.43;3.33;;;15.00;99.90;;;;;;2076640;28;20028;-74
2023/09/23 01:33:34;;;;;;;4.22;3.83;;;14.90;99.90;;;;;;2077288;28;20041;-75
2023/09/23 01:34:34;;;;;;;4.03;3.22;;;14.90;99.90;;;;;;2078836;28;20021;-75
2023/09/23 01:35:35;;;;;;;3.70;3.50;;;14.90;99.90;;;;;;2078647;28;20034;-75
2023/09/23 01:36:36;;;;;;;6.28;4.00;;;14.90;99.90;;;;;;2076805;28;20484;-75
2023/09/23 01:37:38;;;;;;;3.75;3.42;;;14.90;99.90;;;;;;2077774;28;20025;-75
2023/09/23 01:38:41;;;;;;;4.60;3.25;;;14.90;99.90;;;;;;2078544;28;20511;-74
2023/09/23 01:39:41;;;;;;;4.25;3.75;;;14.90;99.90;;;;;;2077264;28;20030;-74
2023/09/23 01:40:43;;;;;;;3.60;3.30;;;14.90;99.90;;;;;;2067328;28;20053;-72
2023/09/23 01:41:44;;;;;;;3.38;3.08;;;14.80;99.90;;;;;;2068247;28;20034;-74
2023/09/23 01:42:49;;;;;;;4.75;3.33;;;14.90;99.90;;;;;;2078044;28;20033;-74
2023/09/23 01:43:49;;;;;;;3.25;3.05;;;14.90;99.90;;;;;;2076844;28;20030;-74
2023/09/23 01:44:50;;;;;;;3.60;3.13;;;14.80;99.90;;;;;;2076864;28;20064;-75
2023/09/23 01:45:52;;;;;;;4.00;3.35;;;14.80;99.90;;;;;;2076912;28;20461;-74
2023/09/23 01:46:52;;;;;;;4.20;3.15;;;14.90;99.90;;;;;;2075814;28;20021;-74
2023/09/23 01:47:56;;;;;;;3.10;2.80;;;14.80;99.90;;;;;;2078581;28;20113;-74
2023/09/23 01:48:57;;;;;;;2.92;2.65;;;14.80;99.90;;;;;;2078923;28;20037;-74
2023/09/23 01:50:01;;;;;;;4.15;3.30;;;14.80;99.90;;;;;;2070305;28;20492;-74
2023/09/23 01:51:02;;;;;;;2.90;2.22;;;14.80;99.90;;;;;;2069249;28;20065;-74
2023/09/23 01:52:02;;;;;;;2.58;2.38;;;14.80;99.90;;;;;;2077437;28;20052;-75
2023/09/23 01:53:04;;;;;;;3.33;2.63;;;14.80;99.90;;;;;;2077510;28;20087;-74
2023/09/23 01:54:04;;;;;;;2.60;2.33;;;14.80;99.90;;;;;;2077104;28;20061;-74
2023/09/23 01:55:05;;;;;;;2.70;2.30;;;14.80;99.90;;;;;;2077883;28;20036;-74
2023/09/23 01:56:06;;;;;;;4.75;2.50;;;14.80;99.90;;;;;;2078097;28;20026;-74
2023/09/23 01:57:07;;;;;;;2.60;2.20;;;14.80;99.90;;;;;;2078303;28;20037;-74
2023/09/23 01:58:07;;;;;;;2.42;2.22;;;14.80;99.90;;;;;;2078585;28;20044;-74
2023/09/23 01:59:09;;;;;;;3.38;2.50;;;14.80;99.90;;;;;;2074748;28;20034;-74
2023/09/23 02:00:22;;;;;;;2.47;2.28;;;14.80;99.90;;;;;;2077366;28;20538;-74
2023/09/23 02:01:22;;;;;;;2.50;2.30;;;14.80;99.90;;;;;;2069427;28;20041;-74
2023/09/23 02:02:23;;;;;;;2.33;2.13;;;14.70;99.90;;;;;;2069258;28;20830;-74
2023/09/23 02:03:23;;;;;;;2.13;2.03;;;14.80;99.90;;;;;;2077583;28;20152;-74
2023/09/23 02:04:24;;;;;;;3.40;2.15;;;14.70;99.90;;;;;;2077842;28;20047;-74
2023/09/23 02:05:27;;;;;;;2.65;2.45;;;14.80;99.90;;;;;;2075630;28;20021;-74
2023/09/23 02:06:32;;;;;;;2.78;2.08;;;14.70;99.90;;;;;;2076932;28;20018;-74
2023/09/23 02:07:32;;;;;;;2.88;2.20;;;14.70;99.90;;;;;;2077549;28;20018;-74
2023/09/23 02:08:33;;;;;;;4.75;2.38;;;14.70;99.90;;;;;;2076864;28;20034;-74
2023/09/23 02:09:34;;;;;;;2.03;1.77;;;14.70;99.90;;;;;;2077862;28;20029;-74
2023/09/23 02:10:35;;;;;;;3.28;2.38;;;14.70;99.90;;;;;;2068357;28;20589;-74
2023/09/23 02:11:37;;;;;;;2.60;2.20;;;14.70;99.90;;;;;;2067655;28;20038;-74
2023/09/23 02:12:37;;;;;;;1.80;1.70;;;14.70;99.90;;;;;;2077115;28;20030;-74
2023/09/23 02:13:40;;;;;;;2.35;2.15;;;14.70;99.90;;;;;;2077687;28;20029;-74
2023/09/23 02:14:41;;;;;;;5.05;2.53;;;14.70;99.90;;;;;;2077176;28;20030;-74
2023/09/23 02:15:43;;;;;;;3.75;2.05;;;14.70;99.90;;;;;;2076250;28;20495;-74
2023/09/23 02:16:47;;;;;;;2.47;2.28;;;14.70;99.90;;;;;;2078618;28;20144;-74
2023/09/23 02:17:48;;;;;;;2.70;1.95;;;14.60;99.90;;;;;;2076824;28;20053;-75
2023/09/23 02:18:50;;;;;;;2.30;2.10;;;14.70;99.90;;;;;;2076218;28;20026;-74
2023/09/23 02:19:53;;;;;;;2.28;1.90;;;14.60;99.90;;;;;;2077713;28;20033;-74
2023/09/23 02:20:54;;;;;;;2.45;2.25;;;14.60;99.90;;;;;;2076781;28;20033;-74
2023/09/23 02:21:55;;;;;;;2.08;1.90;;;14.60;99.90;;;;;;2077018;28;20032;-75
2023/09/23 02:22:55;;;;;;;2.97;2.22;;;14.60;99.90;;;;;;2076464;28;20030;-75
2023/09/23 02:23:56;;;;;;;3.72;2.40;;;14.60;99.90;;;;;;2076869;28;20026;-75
2023/09/23 02:24:56;;;;;;;2.25;2.05;;;14.60;99.90;;;;;;2070187;28;20099;-74
2023/09/23 02:25:59;;;;;;;2.40;2.20;;;14.60;99.90;;;;;;2069988;28;20030;-74
2023/09/23 02:26:59;;;;;;;3.05;2.60;;;14.60;99.90;;;;;;2077140;28;20381;-74
2023/09/23 02:28:00;;;;;;;3.15;2.42;;;14.60;99.90;;;;;;2077258;28;20125;-75
2023/09/23 02:29:01;;;;;;;3.88;2.67;;;14.60;99.90;;;;;;2078284;28;20032;-74
2023/09/23 02:30:02;;;;;;;3.30;3.00;;;14.60;99.90;;;;;;2078789;28;20629;-74
2023/09/23 02:31:02;;;;;;;2.90;2.20;;;14.60;99.90;;;;;;2077867;28;20026;-74
2023/09/23 02:32:06;;;;;;;2.75;2.30;;;14.60;99.90;;;;;;2078504;28;20559;-74
2023/09/23 02:33:08;;;;;;;2.70;2.40;;;14.60;99.90;;;;;;2075743;28;20141;-74
2023/09/23 02:34:10;;;;;;;2.47;2.33;;;14.60;99.90;;;;;;2077924;28;20029;-74
2023/09/23 02:35:12;;;;;;;3.22;2.90;;;14.70;99.90;;;;;;2076642;28;20033;-75
2023/09/23 02:36:14;;;;;;;4.15;2.28;;;14.60;99.90;;;;;;2067935;28;20040;-75
2023/09/23 02:37:14;;;;;;;3.22;2.70;;;14.70;99.90;;;;;;2068084;28;20026;-74
2023/09/23 02:38:15;;;;;;;3.20;2.90;;;14.60;99.90;;;;;;2077010;28;20034;-74
2023/09/23 02:39:16;;;;;;;5.43;2.90;;;14.60;99.90;;;;;;2069696;28;20500;-74
2023/09/23 02:40:17;;;;;;;4.45;3.60;;;14.60;99.90;;;;;;2068391;28;20045;-74
2023/09/23 02:41:18;;;;;;;4.47;3.17;;;14.60;99.90;;;;;;2076774;28;20025;-74
2023/09/23 02:42:19;;;;;;;3.08;2.70;;;14.60;99.90;;;;;;2078232;28;20052;-74
2023/09/23 02:43:20;;;;;;;3.33;3.03;;;14.70;99.90;;;;;;2074910;28;20037;-74
2023/09/23 02:44:22;;;;;;;3.05;2.80;;;14.60;99.90;;;;;;2077329;28;20480;-74
2023/09/23 02:45:23;;;;;;;3.35;3.05;;;14.60;99.90;;;;;;2076250;28;22498;-74
2023/09/23 02:46:24;;;;;;;3.88;3.22;;;14.70;99.90;;;;;;2076794;28;20021;-75
2023/09/23 02:47:24;;;;;;;4.13;2.90;;;14.70;99.90;;;;;;2075340;28;20049;-74
2023/09/23 02:48:25;;;;;;;4.75;3.03;;;14.60;99.90;;;;;;2077476;28;20026;-74
2023/09/23 02:49:26;;;;;;;4.03;3.63;;;14.60;99.90;;;;;;2075261;28;20092;-74
2023/09/23 02:50:26;;;;;;;2.88;2.60;;;14.60;99.90;;;;;;2077605;28;20539;-74
2023/09/23 02:51:27;;;;;;;4.35;3.50;;;14.60;99.90;;;;;;2077845;28;20104;-74
2023/09/23 02:52:28;;;;;;;4.72;4.03;;;14.60;99.90;;;;;;2077113;28;20417;-74
2023/09/23 02:53:30;;;;;;;3.60;3.30;;;14.60;99.90;;;;;;2076968;28;20026;-74
2023/09/23 02:54:31;;;;;;;3.50;3.13;;;14.70;99.90;;;;;;2074886;28;20291;-74
2023/09/23 02:55:32;;;;;;;4.30;3.42;;;14.60;99.90;;;;;;2077310;28;20120;-74
2023/09/23 02:56:34;;;;;;;3.38;3.08;;;14.60;99.90;;;;;;2068373;28;20038;-74
2023/09/23 02:57:38;;;;;;;4.30;3.30;;;14.60;99.90;;;;;;2067449;28;20034;-74
2023/09/23 02:58:40;;;;;;;3.47;2.40;;;14.60;99.90;;;;;;2068799;28;20444;-74
2023/09/23 02:59:41;;;;;;;3.55;3.22;;;14.60;99.90;;;;;;2076258;28;20029;-74
2023/09/23 03:00:56;;;;;;;3.55;3.13;;;14.60;99.90;;;;;;2077780;28;20577;-74
2023/09/23 03:01:58;;;;;;;6.47;3.70;;;14.60;99.90;;;;;;2076465;28;20041;-74
2023/09/23 03:03:01;;;;;;;5.65;3.17;;;14.60;99.90;;;;;;2075856;28;20540;-74
2023/09/23 03:04:15;;;;;;;7.10;3.53;;;14.60;99.90;;;;;;2077019;28;20022;-74
2023/09/23 03:05:16;;;;;;;4.93;3.20;;;14.60;99.90;;;;;;2069965;28;20531;-74
2023/09/23 03:06:18;;;;;;;3.75;3.45;;;14.60;99.90;;;;;;2067995;28;20030;-74
2023/09/23 03:07:19;;;;;;;5.90;3.25;;;14.60;99.90;;;;;;2075802;28;20091;-74
2023/09/23 03:08:19;;;;;;;5.30;3.10;;;14.60;99.90;;;;;;2076898;28;20030;-74
2023/09/23 03:09:25;;;;;;;6.90;3.65;;;14.60;99.90;;;;;;2077182;28;20037;-74
2023/09/23 03:10:32;;;;;;;7.50;3.30;;;14.60;99.90;;;;;;2076490;28;20021;-74
2023/09/23 03:11:38;;;;;;;5.80;3.92;;;14.60;99.90;;;;;;2076287;28;20029;-74
2023/09/23 03:12:50;;;;;;;4.68;3.45;;;14.60;99.90;;;;;;2075639;28;20476;-74
2023/09/23 03:13:52;;;;;;;4.63;3.50;;;14.60;99.90;;;;;;2077745;28;20393;-74
2023/09/23 03:14:53;;;;;;;6.38;3.17;;;14.60;99.90;;;;;;2078130;28;20013;-74
2023/09/23 03:15:58;;;;;;;5.57;3.83;;;14.60;99.90;;;;;;2077945;28;20108;-74
2023/09/23 03:16:59;;;;;;;5.90;3.05;;;14.60;99.90;;;;;;2078025;28;20025;-74
2023/09/23 03:18:00;;;;;;;5.20;3.42;;;14.60;99.90;;;;;;2076134;28;20032;-74
2023/09/23 03:19:10;;;;;;;6.15;3.60;;;14.60;99.90;;;;;;2078247;28;20026;-75
2023/09/23 03:20:21;;;;;;;5.18;3.10;;;14.50;99.90;;;;;;2068298;28;20160;-74
2023/09/23 03:21:21;;;;;;;5.88;3.08;;;14.50;99.90;;;;;;2069349;28;20069;-74
2023/09/23 03:22:23;;;;;;;5.22;3.08;;;14.50;99.90;;;;;;2077861;28;20040;-74
2023/09/23 03:23:24;;;;;;;5.05;3.10;;;14.50;99.90;;;;;;2068146;28;20076;-74
2023/09/23 03:24:26;;;;;;;3.97;3.10;;;14.50;99.90;;;;;;2069462;28;20057;-74
2023/09/23 03:25:27;;;;;;;3.97;3.05;;;14.50;99.90;;;;;;2069764;28;20125;-74
2023/09/23 03:26:27;;;;;;;5.38;3.55;;;14.50;99.90;;;;;;2069722;28;20041;-74
2023/09/23 03:27:28;;;;;;;8.30;2.78;;;14.50;99.90;;;;;;2075715;28;20450;-74
2023/09/23 03:28:28;;;;;;;5.32;2.72;;;14.50;99.90;;;;;;2076462;28;20105;-74
2023/09/23 03:29:31;;;;;;;7.05;3.60;;;14.50;99.90;;;;;;2066723;28;20030;-74
2023/09/23 03:30:31;;;;;;;3.97;3.13;;;14.50;99.90;;;;;;2067772;28;20113;-75
2023/09/23 03:31:32;;;;;;;7.22;3.22;;;14.50;99.90;;;;;;2076287;28;20022;-74
2023/09/23 03:32:33;;;;;;;3.00;2.65;;;14.50;99.90;;;;;;2076375;28;20685;-75
2023/09/23 03:33:33;;;;;;;5.72;3.00;;;14.50;99.90;;;;;;2077303;28;20037;-75
2023/09/23 03:34:37;;;;;;;3.70;2.92;;;14.50;99.90;;;;;;2077560;28;20463;-74
2023/09/23 03:35:38;;;;;;;4.60;2.53;;;14.50;99.90;;;;;;2077767;28;20034;-75
2023/09/23 03:36:42;;;;;;;4.30;2.50;;;14.50;99.90;;;;;;2071546;28;20026;-75
2023/09/23 03:37:46;;;;;;;4.72;2.88;;;14.50;99.90;;;;;;2069791;28;20032;-74
2023/09/23 03:38:49;;;;;;;5.20;2.95;;;14.50;99.90;;;;;;2076013;28;20030;-74
2023/09/23 03:39:49;;;;;;;5.75;3.05;;;14.40;99.90;;;;;;2075897;28;20364;-75
2023/09/23 03:41:02;;;;;;;6.90;2.88;;;14.50;99.90;;;;;;2076319;28;20021;-75
2023/09/23 03:42:04;;;;;;;4.03;2.63;;;14.50;99.90;;;;;;2076142;28;20022;-75
2023/09/23 03:43:05;;;;;;;6.93;2.60;;;14.40;99.90;;;;;;2077588;28;20045;-74
2023/09/23 03:44:07;;;;;;;3.45;2.90;;;14.40;99.90;;;;;;2076772;28;20065;-74
2023/09/23 03:45:10;;;;;;;8.40;2.63;;;14.40;99.90;;;;;;2077287;28;20060;-74
2023/09/23 03:46:12;;;;;;;4.05;2.33;;;14.40;99.90;;;;;;2076055;28;20037;-74
2023/09/23 03:47:13;;;;;;;5.55;3.10;;;14.40;99.90;;;;;;2075396;28;20033;-74
2023/09/23 03:48:14;;;;;;;2.97;2.65;;;14.40;99.90;;;;;;2076958;28;20483;-75
2023/09/23 03:49:15;;;;;;;5.78;2.53;;;14.40;99.90;;;;;;2075927;28;20021;-75
2023/09/23 03:50:16;;;;;;;6.40;2.58;;;14.40;99.90;;;;;;2077282;28;20049;-74
2023/09/23 03:51:17;;;;;;;3.97;2.55;;;14.40;99.90;;;;;;2076663;28;20424;-74
2023/09/23 03:52:18;;;;;;;6.97;2.42;;;14.40;99.90;;;;;;2075349;28;20045;-74
2023/09/23 03:53:23;;;;;;;5.55;2.00;;;14.40;99.90;;;;;;2075794;28;20021;-75
2023/09/23 03:54:24;;;;;;;4.15;2.45;;;14.40;99.90;;;;;;2076592;28;20030;-75
2023/09/23 03:55:25;;;;;;;4.90;2.60;;;14.40;99.90;;;;;;2075999;28;20037;-74
2023/09/23 03:56:27;;;;;;;3.78;2.42;;;14.40;99.90;;;;;;2067504;28;20080;-74
2023/09/23 03:57:28;;;;;;;4.47;2.40;;;14.40;99.90;;;;;;2069364;28;20576;-74
2023/09/23 03:58:30;;;;;;;6.43;2.63;;;14.30;99.90;;;;;;2077115;28;20652;-75
2023/09/23 03:59:30;;;;;;;6.32;2.45;;;14.40;99.90;;;;;;2079426;28;20927;-74
2023/09/23 04:00:37;;;;;;;12.00;3.03;;;14.30;99.90;;;;;;2075472;28;21950;-74
2023/09/23 04:01:38;;;;;;;5.20;2.17;;;14.30;99.90;;;;;;2076314;28;20044;-74
2023/09/23 04:02:39;;;;;;;3.95;2.22;;;14.30;99.90;;;;;;2079172;28;20040;-74
2023/09/23 04:03:40;;;;;;;5.03;2.60;;;14.30;99.90;;;;;;2076173;28;20032;-75
2023/09/23 04:04:40;;;;;;;6.90;2.42;;;14.30;99.90;;;;;;2077953;28;20099;-74
2023/09/23 04:05:41;;;;;;;5.28;2.05;;;14.30;99.90;;;;;;2075578;28;20025;-74
2023/09/23 04:06:42;;;;;;;5.32;2.42;;;14.30;99.90;;;;;;2075760;28;20083;-74
2023/09/23 04:07:52;;;;;;;4.88;2.13;;;14.30;99.90;;;;;;2076130;28;20049;-74
2023/09/23 04:08:54;;;;;;;2.95;1.98;;;14.30;99.90;;;;;;2076347;28;20026;-74
2023/09/23 04:09:55;;;;;;;6.15;2.13;;;14.30;99.90;;;;;;2077009;28;20029;-74
2023/09/23 04:10:56;;;;;;;4.90;2.30;;;14.30;99.90;;;;;;2077038;28;20021;-75
2023/09/23 04:11:56;;;;;;;4.30;2.28;;;14.30;99.90;;;;;;2075210;28;20036;-74
2023/09/23 04:12:57;;;;;;;5.45;2.53;;;14.30;99.90;;;;;;2068072;28;20073;-75
2023/09/23 04:13:58;;;;;;;6.13;2.38;;;14.30;99.90;;;;;;2067552;28;20062;-75
2023/09/23 04:14:58;;;;;;;5.55;1.95;;;14.30;99.90;;;;;;2077373;28;20021;-75
2023/09/23 04:16:00;;;;;;;7.28;2.35;;;14.30;99.90;;;;;;2077729;28;20030;-75
2023/09/23 04:17:01;;;;;;;3.95;1.80;;;14.30;99.90;;;;;;2075748;28;20040;-74
2023/09/23 04:18:02;;;;;;;4.40;2.35;;;14.30;99.90;;;;;;2076653;28;20027;-75
2023/09/23 04:19:03;;;;;;;3.80;2.35;;;14.30;99.90;;;;;;2076084;28;20033;-75
2023/09/23 04:20:09;;;;;;;4.07;2.10;;;14.30;99.90;;;;;;2075985;28;20108;-75
2023/09/23 04:21:10;;;;;;;3.60;2.00;;;14.30;99.90;;;;;;2067793;28;20454;-75
2023/09/23 04:22:11;;;;;;;3.42;2.17;;;14.30;99.90;;;;;;2069379;28;20523;-75
2023/09/23 04:23:11;;;;;;;3.67;2.08;;;14.30;99.90;;;;;;2075306;28;20436;-75
2023/09/23 04:24:12;;;;;;;4.35;2.10;;;14.30;99.90;;;;;;2072628;28;20503;-75
2023/09/23 04:25:15;;;;;;;6.00;2.40;;;14.30;99.90;;;;;;2070143;28;20133;-75
2023/09/23 04:26:16;;;;;;;6.85;2.45;;;14.20;99.90;;;;;;2074846;28;20037;-74
2023/09/23 04:27:20;;;;;;;4.05;2.00;;;14.30;99.90;;;;;;2075433;28;20029;-75
2023/09/23 04:28:20;;;;;;;3.63;2.03;;;14.30;99.90;;;;;;2077739;28;20025;-74
2023/09/23 04:29:21;;;;;;;5.00;2.10;;;14.20;99.90;;;;;;2071320;28;20026;-74
2023/09/23 04:30:22;;;;;;;4.18;1.88;;;14.20;99.90;;;;;;2071610;28;20081;-74
2023/09/23 04:31:24;;;;;;;3.22;1.88;;;14.30;99.90;;;;;;2076584;28;20033;-74
2023/09/23 04:32:25;;;;;;;3.42;2.00;;;14.30;99.90;;;;;;2076084;28;20005;-75
2023/09/23 04:33:27;;;;;;;7.95;2.03;;;14.30;99.90;;;;;;2077602;28;20022;-75
2023/09/23 04:34:29;;;;;;;6.07;2.17;;;14.30;99.90;;;;;;2076574;28;20120;-75
2023/09/23 04:35:30;;;;;;;5.05;1.83;;;14.30;99.90;;;;;;2076860;28;20025;-75
2023/09/23 04:36:30;;;;;;;5.97;2.17;;;14.30;99.90;;;;;;2076818;28;20033;-74
2023/09/23 04:37:36;;;;;;;6.90;2.22;;;14.30;99.90;;;;;;2076841;28;20037;-73
2023/09/23 04:38:37;;;;;;;5.78;2.10;;;14.30;99.90;;;;;;2077201;28;20041;-74
2023/09/23 04:39:38;;;;;;;3.30;1.85;;;14.30;99.90;;;;;;2069666;28;20042;-75
2023/09/23 04:40:39;;;;;;;6.18;2.47;;;14.30;99.90;;;;;;2068007;28;20038;-75
2023/09/23 04:41:40;;;;;;;7.45;2.42;;;14.30;99.90;;;;;;2076521;28;20083;-75
2023/09/23 04:42:42;;;;;;;5.90;1.95;;;14.30;99.90;;;;;;2069640;28;20521;-74
2023/09/23 04:43:43;;;;;;;5.50;2.40;;;14.30;99.90;;;;;;2075447;28;20029;-74
2023/09/23 04:44:44;;;;;;;4.07;1.85;;;14.40;99.90;;;;;;2079099;28;20029;-74
2023/09/23 04:45:45;;;;;;;5.78;2.13;;;14.40;99.90;;;;;;2078069;28;20026;-75
2023/09/23 04:46:46;;;;;;;6.65;2.20;;;14.40;99.90;;;;;;2076664;28;20093;-75
2023/09/23 04:47:50;;;;;;;5.95;2.08;;;14.40;99.90;;;;;;2069376;28;20022;-74
2023/09/23 04:48:50;;;;;;;6.45;2.22;;;14.40;99.90;;;;;;2069768;28;20593;-74
2023/09/23 04:49:51;;;;;;;2.85;1.95;;;14.40;99.90;;;;;;2077613;28;20357;-75
2023/09/23 04:50:55;;;;;;;6.50;2.55;;;14.40;99.90;;;;;;2077566;28;20017;-75
2023/09/23 04:51:56;;;;;;;4.47;1.80;;;14.40;99.90;;;;;;2071299;28;20034;-75
2023/09/23 04:52:56;;;;;;;3.15;1.77;;;14.40;99.90;;;;;;2067871;28;20023;-75
2023/09/23 04:53:57;;;;;;;4.95;2.22;;;14.40;99.90;;;;;;2070411;28;20358;-74
2023/09/23 04:54:57;;;;;;;4.00;2.05;;;14.40;99.90;;;;;;2079600;28;20036;-74
2023/09/23 04:55:58;;;;;;;6.63;1.95;;;14.40;99.90;;;;;;2076931;28;20538;-75
2023/09/23 04:57:00;;;;;;;5.13;1.75;;;14.40;99.90;;;;;;2077594;28;20080;-74
2023/09/23 04:58:00;;;;;;;3.45;2.22;;;14.40;99.90;;;;;;2075916;28;20036;-74
2023/09/23 04:59:01;;;;;;;5.80;1.98;;;14.40;99.90;;;;;;2078620;28;20380;-75
2023/09/23 05:00:03;;;;;;;5.78;2.25;;;14.40;99.90;;;;;;2077845;28;20030;-74
2023/09/23 05:01:05;;;;;;;5.05;1.75;;;14.40;99.90;;;;;;2076812;28;20714;-74
2023/09/23 05:02:06;;;;;;;4.20;2.50;;;14.40;99.90;;;;;;2077426;28;20439;-74
2023/09/23 05:03:08;;;;;;;9.00;1.92;;;14.50;99.90;;;;;;2076112;28;20050;-74
2023/09/23 05:04:09;;;;;;;3.85;1.70;;;14.40;99.90;;;;;;2068541;28;20035;-75
2023/09/23 05:05:11;;;;;;;5.68;2.33;;;14.40;99.90;;;;;;2063585;28;20053;-75
2023/09/23 05:06:12;;;;;;;5.97;1.90;;;14.40;99.90;;;;;;2071782;28;20164;-74
2023/09/23 05:07:13;;;;;;;3.35;1.60;;;14.40;99.90;;;;;;2077752;28;20029;-75
2023/09/23 05:08:14;;;;;;;5.28;2.20;;;14.40;99.90;;;;;;2078207;28;20059;-74
2023/09/23 05:09:16;;;;;;;5.95;2.28;;;14.40;99.90;;;;;;2078310;28;20025;-74
2023/09/23 05:10:17;;;;;;;3.67;1.83;;;14.40;99.90;;;;;;2078154;28;20018;-74
2023/09/23 05:11:18;;;;;;;4.07;1.92;;;14.40;99.90;;;;;;2079631;28;20038;-75
2023/09/23 05:12:19;;;;;;;4.47;2.03;;;14.40;99.90;;;;;;2068652;28;20046;-75
2023/09/23 05:13:19;;;;;;;3.53;1.95;;;14.40;99.90;;;;;;2067883;28;20508;-74
2023/09/23 05:14:20;;;;;;;3.60;2.20;;;14.40;99.90;;;;;;2078234;28;20083;-74
2023/09/23 05:15:21;;;;;;;5.22;2.20;;;14.40;99.90;;;;;;2077576;28;20380;-74
2023/09/23 05:16:22;;;;;;;4.43;2.47;;;14.40;99.90;;;;;;2077767;28;20943;-75
2023/09/23 05:17:26;;;;;;;11.40;2.92;;;14.40;99.90;;;;;;2079106;28;20408;-75
2023/09/23 05:18:27;;;;;;;6.32;2.33;;;14.40;99.90;;;;;;2077877;28;20431;-75
2023/09/23 05:19:27;;;;;;;3.88;2.22;;;14.40;99.90;;;;;;2077448;28;20029;-74
2023/09/23 05:20:28;;;;;;;4.60;2.28;;;14.50;99.90;;;;;;2077701;28;20092;-75
2023/09/23 05:21:29;;;;;;;6.13;2.20;;;14.50;99.90;;;;;;2078059;28;20067;-74
2023/09/23 05:22:31;;;;;;;5.00;2.17;;;14.40;99.90;;;;;;2069199;28;20082;-74